createdAt,value
2022-12-26T00:00:40.506Z,987.17
2022-12-26T00:01:40.479Z,987.19
2022-12-26T00:02:40.562Z,987.15
2022-12-26T00:03:40.665Z,987.13
2022-12-26T00:04:48.211Z,987.14
2022-12-26T00:05:40.421Z,987.13
2022-12-26T00:06:40.391Z,987.18
2022-12-26T00:07:40.378Z,987.18
2022-12-26T00:08:40.419Z,987.19
2022-12-26T00:09:40.387Z,987.20
2022-12-26T00:10:40.353Z,987.19
2022-12-26T00:11:40.364Z,987.24
2022-12-26T00:12:40.563Z,987.27
2022-12-26T00:13:41.538Z,987.23
2022-12-26T00:14:40.552Z,987.22
2022-12-26T00:15:40.330Z,987.24
2022-12-26T00:16:40.418Z,987.30
2022-12-26T00:17:40.337Z,987.35
2022-12-26T00:18:40.303Z,987.30
2022-12-26T00:19:40.345Z,987.29
2022-12-26T00:20:40.294Z,987.26
2022-12-26T00:21:40.269Z,987.29
2022-12-26T00:22:40.277Z,987.27
2022-12-26T00:23:40.255Z,987.35
2022-12-26T00:24:40.279Z,987.37
2022-12-26T00:25:40.402Z,987.34
2022-12-26T00:26:40.258Z,987.40
2022-12-26T00:27:40.189Z,987.28
2022-12-26T00:28:40.389Z,987.22
2022-12-26T00:29:40.172Z,987.20
2022-12-26T00:30:40.152Z,987.18
2022-12-26T00:31:40.495Z,987.22
2022-12-26T00:32:40.141Z,987.17
2022-12-26T00:33:40.347Z,987.20
2022-12-26T00:34:40.141Z,987.17
2022-12-26T00:35:40.103Z,987.11
2022-12-26T00:36:40.107Z,987.16
2022-12-26T00:37:40.118Z,987.17
2022-12-26T00:38:40.187Z,987.12
2022-12-26T00:39:40.118Z,987.13
2022-12-26T00:40:40.087Z,987.18
2022-12-26T00:41:40.280Z,987.17
2022-12-26T00:42:40.067Z,987.20
2022-12-26T00:43:40.090Z,987.25
2022-12-26T00:44:40.033Z,987.17
2022-12-26T00:45:40.026Z,987.23
2022-12-26T00:46:40.063Z,987.30
2022-12-26T00:47:40.065Z,987.36
2022-12-26T00:48:39.992Z,987.38
2022-12-26T00:50:14.307Z,987.27
2022-12-26T00:50:40.169Z,987.25
2022-12-26T00:51:39.971Z,987.21
2022-12-26T00:52:39.975Z,987.21
2022-12-26T00:53:39.968Z,987.23
2022-12-26T00:54:39.938Z,987.20
2022-12-26T00:55:39.980Z,987.11
2022-12-26T00:56:39.932Z,987.08
2022-12-26T00:57:40.095Z,987.11
2022-12-26T00:58:39.932Z,987.07
2022-12-26T00:59:39.947Z,987.06
2022-12-26T01:00:39.944Z,987.11
2022-12-26T01:01:40.121Z,987.19
2022-12-26T01:02:40.195Z,987.11
2022-12-26T01:03:40.072Z,987.14
2022-12-26T01:04:39.843Z,987.12
2022-12-26T01:05:39.853Z,987.14
2022-12-26T01:06:39.821Z,987.02
2022-12-26T01:08:20.027Z,986.95
2022-12-26T01:08:39.993Z,986.99
2022-12-26T01:09:39.990Z,986.89
2022-12-26T01:10:39.808Z,986.99
2022-12-26T01:11:39.780Z,986.98
2022-12-26T01:12:39.747Z,986.98
2022-12-26T01:13:39.774Z,986.98
2022-12-26T01:14:39.744Z,986.93
2022-12-26T01:15:39.921Z,986.99
2022-12-26T01:16:39.850Z,986.96
2022-12-26T01:17:39.765Z,986.95
2022-12-26T01:18:39.725Z,986.98
2022-12-26T01:19:39.958Z,987.05
2022-12-26T01:20:39.720Z,987.09
2022-12-26T01:21:39.708Z,987.10
2022-12-26T01:22:39.721Z,987.15
2022-12-26T01:23:39.679Z,987.07
2022-12-26T01:24:39.651Z,987.10
2022-12-26T01:26:18.263Z,987.07
2022-12-26T01:26:39.830Z,987.10
2022-12-26T01:27:39.616Z,987.11
2022-12-26T01:28:39.837Z,987.07
2022-12-26T01:29:39.822Z,987.07
2022-12-26T01:30:39.608Z,987.10
2022-12-26T01:31:39.863Z,987.19
2022-12-26T01:32:39.561Z,987.29
2022-12-26T01:33:39.781Z,987.30
2022-12-26T01:34:39.640Z,987.37
2022-12-26T01:35:39.606Z,987.38
2022-12-26T01:36:39.779Z,987.38
2022-12-26T01:37:39.522Z,987.40
2022-12-26T01:38:39.787Z,987.39
2022-12-26T01:39:39.736Z,987.43
2022-12-26T01:40:39.933Z,987.42
2022-12-26T01:41:39.493Z,987.42
2022-12-26T01:42:39.482Z,987.40
2022-12-26T01:43:39.664Z,987.44
2022-12-26T01:44:39.471Z,987.44
2022-12-26T01:45:39.476Z,987.38
2022-12-26T01:46:39.456Z,987.33
2022-12-26T01:47:39.689Z,987.24
2022-12-26T01:48:39.427Z,987.32
2022-12-26T01:49:39.420Z,987.32
2022-12-26T01:50:39.405Z,987.31
2022-12-26T01:51:39.419Z,987.25
2022-12-26T01:52:39.377Z,987.21
2022-12-26T01:53:39.483Z,987.12
2022-12-26T01:54:42.625Z,987.02
2022-12-26T01:55:39.410Z,987.03
2022-12-26T01:56:39.362Z,987.09
2022-12-26T01:57:39.345Z,987.10
2022-12-26T01:58:39.319Z,987.13
2022-12-26T01:59:39.326Z,987.07
2022-12-26T02:00:39.335Z,987.08
2022-12-26T02:01:39.380Z,987.12
2022-12-26T02:02:39.850Z,987.05
2022-12-26T02:03:39.278Z,987.04
2022-12-26T02:04:39.289Z,987.04
2022-12-26T02:05:39.274Z,987.08
2022-12-26T02:06:39.265Z,987.07
2022-12-26T02:07:39.249Z,987.01
2022-12-26T02:08:39.251Z,986.98
2022-12-26T02:09:39.447Z,986.97
2022-12-26T02:10:39.261Z,986.95
2022-12-26T02:11:39.191Z,986.92
2022-12-26T02:12:39.580Z,986.93
2022-12-26T02:13:39.174Z,987.00
2022-12-26T02:14:39.168Z,987.04
2022-12-26T02:15:39.167Z,987.08
2022-12-26T02:16:39.192Z,987.11
2022-12-26T02:17:39.184Z,987.14
2022-12-26T02:18:39.159Z,987.15
2022-12-26T02:19:39.168Z,987.12
2022-12-26T02:20:39.151Z,987.14
2022-12-26T02:21:39.151Z,987.17
2022-12-26T02:22:39.106Z,987.21
2022-12-26T02:23:39.104Z,987.23
2022-12-26T02:24:39.075Z,987.18
2022-12-26T02:25:39.064Z,987.16
2022-12-26T02:26:39.281Z,987.12
2022-12-26T02:27:39.044Z,987.18
2022-12-26T02:28:39.044Z,987.26
2022-12-26T02:29:39.034Z,987.36
2022-12-26T02:30:39.060Z,987.41
2022-12-26T02:31:39.052Z,987.41
2022-12-26T02:32:39.047Z,987.40
2022-12-26T02:33:39.009Z,987.42
2022-12-26T02:34:39.218Z,987.43
2022-12-26T02:35:39.237Z,987.44
2022-12-26T02:36:38.964Z,987.42
2022-12-26T02:37:38.989Z,987.38
2022-12-26T02:38:38.937Z,987.24
2022-12-26T02:39:45.586Z,987.18
2022-12-26T02:40:38.929Z,987.18
2022-12-26T02:41:38.945Z,987.23
2022-12-26T02:42:38.958Z,987.18
2022-12-26T02:43:38.913Z,987.18
2022-12-26T02:44:38.949Z,987.12
2022-12-26T02:45:38.906Z,987.08
2022-12-26T02:46:38.862Z,987.08
2022-12-26T02:47:38.891Z,987.05
2022-12-26T02:48:38.904Z,987.08
2022-12-26T02:49:38.878Z,987.10
2022-12-26T02:50:38.837Z,987.08
2022-12-26T02:51:38.858Z,987.08
2022-12-26T02:52:38.955Z,987.07
2022-12-26T02:53:38.843Z,987.12
2022-12-26T02:54:38.820Z,987.14
2022-12-26T02:55:38.813Z,987.21
2022-12-26T02:56:38.817Z,987.19
2022-12-26T02:57:38.763Z,987.17
2022-12-26T02:58:38.748Z,987.24
2022-12-26T02:59:56.121Z,987.21
2022-12-26T03:00:38.785Z,987.26
2022-12-26T03:01:38.884Z,987.27
2022-12-26T03:02:38.837Z,987.20
2022-12-26T03:03:38.720Z,987.22
2022-12-26T03:04:38.690Z,987.21
2022-12-26T03:05:38.712Z,987.20
2022-12-26T03:06:38.877Z,987.22
2022-12-26T03:07:38.704Z,987.16
2022-12-26T03:08:38.655Z,987.18
2022-12-26T03:09:38.865Z,987.21
2022-12-26T03:10:38.673Z,987.26
2022-12-26T03:11:38.676Z,987.28
2022-12-26T03:12:38.664Z,987.30
2022-12-26T03:13:38.627Z,987.29
2022-12-26T03:14:38.595Z,987.29
2022-12-26T03:15:38.584Z,987.23
2022-12-26T03:16:38.606Z,987.27
2022-12-26T03:17:38.565Z,987.21
2022-12-26T03:18:58.071Z,987.25
2022-12-26T03:19:38.543Z,987.21
2022-12-26T03:20:38.734Z,987.23
2022-12-26T03:21:38.572Z,987.25
2022-12-26T03:22:38.543Z,987.24
2022-12-26T03:23:38.530Z,987.20
2022-12-26T03:24:38.521Z,987.25
2022-12-26T03:25:38.531Z,987.23
2022-12-26T03:26:38.501Z,987.26
2022-12-26T03:27:38.493Z,987.26
2022-12-26T03:28:38.476Z,987.29
2022-12-26T03:29:38.491Z,987.28
2022-12-26T03:30:38.514Z,987.29
2022-12-26T03:31:38.453Z,987.31
2022-12-26T03:32:38.456Z,987.29
2022-12-26T03:33:38.417Z,987.24
2022-12-26T03:34:38.421Z,987.28
2022-12-26T03:35:38.419Z,987.20
2022-12-26T03:36:38.454Z,987.26
2022-12-26T03:37:49.286Z,987.22
2022-12-26T03:38:38.407Z,987.23
2022-12-26T03:39:38.414Z,987.22
2022-12-26T03:40:38.368Z,987.13
2022-12-26T03:41:38.376Z,987.10
2022-12-26T03:42:38.573Z,987.23
2022-12-26T03:43:38.348Z,987.18
2022-12-26T03:44:38.355Z,987.31
2022-12-26T03:45:38.324Z,987.32
2022-12-26T03:46:38.385Z,987.31
2022-12-26T03:47:38.322Z,987.35
2022-12-26T03:48:38.310Z,987.38
2022-12-26T03:49:38.284Z,987.39
2022-12-26T03:50:38.260Z,987.36
2022-12-26T03:51:38.280Z,987.44
2022-12-26T03:52:38.249Z,987.46
2022-12-26T03:53:38.231Z,987.50
2022-12-26T03:54:38.257Z,987.51
2022-12-26T03:55:38.277Z,987.50
2022-12-26T03:56:38.229Z,987.48
2022-12-26T03:57:38.230Z,987.53
2022-12-26T03:58:38.201Z,987.50
2022-12-26T03:59:38.310Z,987.39
2022-12-26T04:00:38.192Z,987.40
2022-12-26T04:01:38.381Z,987.38
2022-12-26T04:02:38.348Z,987.47
2022-12-26T04:03:38.155Z,987.57
2022-12-26T04:04:38.155Z,987.56
2022-12-26T04:05:38.170Z,987.57
2022-12-26T04:06:38.150Z,987.54
2022-12-26T04:07:38.125Z,987.50
2022-12-26T04:08:38.112Z,987.56
2022-12-26T04:09:38.086Z,987.56
2022-12-26T04:10:38.092Z,987.58
2022-12-26T04:11:38.096Z,987.55
2022-12-26T04:12:38.306Z,987.49
2022-12-26T04:13:38.101Z,987.51
2022-12-26T04:14:38.031Z,987.53
2022-12-26T04:15:38.113Z,987.50
2022-12-26T04:16:38.029Z,987.49
2022-12-26T04:17:38.029Z,987.54
2022-12-26T04:18:38.011Z,987.46
2022-12-26T04:19:38.032Z,987.53
2022-12-26T04:20:38.031Z,987.48
2022-12-26T04:21:37.984Z,987.44
2022-12-26T04:22:37.987Z,987.44
2022-12-26T04:23:37.971Z,987.44
2022-12-26T04:24:37.969Z,987.44
2022-12-26T04:25:48.504Z,987.46
2022-12-26T04:26:37.944Z,987.47
2022-12-26T04:27:37.944Z,987.53
2022-12-26T04:28:38.136Z,987.45
2022-12-26T04:29:37.924Z,987.45
2022-12-26T04:30:37.907Z,987.37
2022-12-26T04:31:38.004Z,987.34
2022-12-26T04:32:37.976Z,987.28
2022-12-26T04:33:37.867Z,987.33
2022-12-26T04:34:37.911Z,987.30
2022-12-26T04:35:37.983Z,987.28
2022-12-26T04:36:37.938Z,987.26
2022-12-26T04:37:37.822Z,987.24
2022-12-26T04:38:37.903Z,987.21
2022-12-26T04:39:37.821Z,987.16
2022-12-26T04:40:37.901Z,987.15
2022-12-26T04:41:37.866Z,987.18
2022-12-26T04:42:37.777Z,987.15
2022-12-26T04:43:48.112Z,987.21
2022-12-26T04:44:37.828Z,987.24
2022-12-26T04:45:37.821Z,987.28
2022-12-26T04:46:37.838Z,987.32
2022-12-26T04:47:37.784Z,987.34
2022-12-26T04:48:37.753Z,987.24
2022-12-26T04:49:37.771Z,987.34
2022-12-26T04:50:37.793Z,987.37
2022-12-26T04:51:37.684Z,987.37
2022-12-26T04:52:37.722Z,987.37
2022-12-26T04:53:37.709Z,987.39
2022-12-26T04:54:37.717Z,987.41
2022-12-26T04:55:37.695Z,987.37
2022-12-26T04:56:37.845Z,987.33
2022-12-26T04:57:37.741Z,987.26
2022-12-26T04:58:37.669Z,987.16
2022-12-26T04:59:37.679Z,987.23
2022-12-26T05:00:37.643Z,987.22
2022-12-26T05:01:37.766Z,987.27
2022-12-26T05:02:37.854Z,987.35
2022-12-26T05:03:37.709Z,987.43
2022-12-26T05:04:37.640Z,987.37
2022-12-26T05:05:37.612Z,987.33
2022-12-26T05:06:37.599Z,987.27
2022-12-26T05:07:37.562Z,987.21
2022-12-26T05:08:37.558Z,987.18
2022-12-26T05:09:37.544Z,987.21
2022-12-26T05:10:37.744Z,987.22
2022-12-26T05:11:37.580Z,987.21
2022-12-26T05:12:37.501Z,987.27
2022-12-26T05:13:37.549Z,987.29
2022-12-26T05:14:37.510Z,987.21
2022-12-26T05:15:37.555Z,987.16
2022-12-26T05:16:37.483Z,987.05
2022-12-26T05:17:37.438Z,987.04
2022-12-26T05:18:37.459Z,987.06
2022-12-26T05:19:37.467Z,987.03
2022-12-26T05:20:37.526Z,986.94
2022-12-26T05:21:37.443Z,986.92
2022-12-26T05:22:37.401Z,986.87
2022-12-26T05:23:37.389Z,986.90
2022-12-26T05:24:37.382Z,986.86
2022-12-26T05:25:37.601Z,986.85
2022-12-26T05:26:37.395Z,986.84
2022-12-26T05:27:37.365Z,986.86
2022-12-26T05:28:37.362Z,986.88
2022-12-26T05:29:37.367Z,986.95
2022-12-26T05:30:37.550Z,986.98
2022-12-26T05:31:37.532Z,987.01
2022-12-26T05:32:37.343Z,987.00
2022-12-26T05:33:37.334Z,986.94
2022-12-26T05:34:37.309Z,986.96
2022-12-26T05:35:37.297Z,986.93
2022-12-26T05:36:37.399Z,986.84
2022-12-26T05:37:37.259Z,986.87
2022-12-26T05:38:37.287Z,986.88
2022-12-26T05:39:37.272Z,986.95
2022-12-26T05:40:37.281Z,986.97
2022-12-26T05:41:37.229Z,987.01
2022-12-26T05:42:37.274Z,987.02
2022-12-26T05:43:37.200Z,987.03
2022-12-26T05:44:37.197Z,986.98
2022-12-26T05:45:37.199Z,987.04
2022-12-26T05:46:37.248Z,987.14
2022-12-26T05:47:37.187Z,987.14
2022-12-26T05:48:37.204Z,987.21
2022-12-26T05:49:37.175Z,987.23
2022-12-26T05:50:37.157Z,987.26
2022-12-26T05:51:37.152Z,987.27
2022-12-26T05:52:37.156Z,987.25
2022-12-26T05:53:37.124Z,987.27
2022-12-26T05:54:37.134Z,987.26
2022-12-26T05:55:37.147Z,987.28
2022-12-26T05:56:37.121Z,987.26
2022-12-26T05:57:37.110Z,987.35
2022-12-26T05:58:37.087Z,987.39
2022-12-26T05:59:37.108Z,987.41
2022-12-26T06:00:37.056Z,987.43
2022-12-26T06:01:37.275Z,987.45
2022-12-26T06:02:37.452Z,987.42
2022-12-26T06:03:37.191Z,987.51
2022-12-26T06:04:37.040Z,987.44
2022-12-26T06:05:37.050Z,987.43
2022-12-26T06:06:37.049Z,987.48
2022-12-26T06:07:37.134Z,987.55
2022-12-26T06:08:37.013Z,987.56
2022-12-26T06:09:37.012Z,987.60
2022-12-26T06:10:36.962Z,987.72
2022-12-26T06:11:36.986Z,987.72
2022-12-26T06:12:36.986Z,987.75
2022-12-26T06:13:37.140Z,987.75
2022-12-26T06:14:36.944Z,987.74
2022-12-26T06:15:36.908Z,987.71
2022-12-26T06:16:36.955Z,987.74
2022-12-26T06:17:36.895Z,987.71
2022-12-26T06:18:36.875Z,987.71
2022-12-26T06:19:40.108Z,987.66
2022-12-26T06:20:36.876Z,987.61
2022-12-26T06:21:36.908Z,987.61
2022-12-26T06:22:36.853Z,987.61
2022-12-26T06:23:36.885Z,987.60
2022-12-26T06:24:36.854Z,987.64
2022-12-26T06:25:36.880Z,987.72
2022-12-26T06:26:36.828Z,987.74
2022-12-26T06:27:36.789Z,987.78
2022-12-26T06:28:36.809Z,987.81
2022-12-26T06:29:36.802Z,987.82
2022-12-26T06:30:36.804Z,987.81
2022-12-26T06:31:36.916Z,987.76
2022-12-26T06:32:36.757Z,987.73
2022-12-26T06:33:36.764Z,987.68
2022-12-26T06:34:36.785Z,987.65
2022-12-26T06:35:36.733Z,987.68
2022-12-26T06:36:36.718Z,987.67
2022-12-26T06:37:36.731Z,987.64
2022-12-26T06:38:36.733Z,987.64
2022-12-26T06:39:36.740Z,987.67
2022-12-26T06:40:36.712Z,987.65
2022-12-26T06:41:36.861Z,987.67
2022-12-26T06:42:36.661Z,987.67
2022-12-26T06:43:36.697Z,987.65
2022-12-26T06:44:36.685Z,987.64
2022-12-26T06:45:36.639Z,987.61
2022-12-26T06:46:36.717Z,987.60
2022-12-26T06:47:36.609Z,987.60
2022-12-26T06:48:36.594Z,987.61
2022-12-26T06:49:36.591Z,987.56
2022-12-26T06:50:36.562Z,987.52
2022-12-26T06:51:36.593Z,987.59
2022-12-26T06:52:36.567Z,987.61
2022-12-26T06:53:36.560Z,987.69
2022-12-26T06:54:36.553Z,987.67
2022-12-26T06:55:36.569Z,987.69
2022-12-26T06:56:36.512Z,987.62
2022-12-26T06:57:36.520Z,987.65
2022-12-26T06:58:36.491Z,987.62
2022-12-26T06:59:36.708Z,987.67
2022-12-26T07:00:36.534Z,987.75
2022-12-26T07:01:36.647Z,987.79
2022-12-26T07:02:36.646Z,987.84
2022-12-26T07:03:36.471Z,987.89
2022-12-26T07:04:36.480Z,987.87
2022-12-26T07:05:36.442Z,987.77
2022-12-26T07:06:36.478Z,987.76
2022-12-26T07:07:36.400Z,987.81
2022-12-26T07:08:36.602Z,987.91
2022-12-26T07:09:36.383Z,988.01
2022-12-26T07:10:36.427Z,988.07
2022-12-26T07:11:36.402Z,988.04
2022-12-26T07:12:36.355Z,988.00
2022-12-26T07:13:36.359Z,987.95
2022-12-26T07:14:36.334Z,987.91
2022-12-26T07:15:36.335Z,987.94
2022-12-26T07:16:36.409Z,987.91
2022-12-26T07:17:36.309Z,987.89
2022-12-26T07:18:36.322Z,987.95
2022-12-26T07:19:36.383Z,987.98
2022-12-26T07:20:36.301Z,987.96
2022-12-26T07:21:40.329Z,987.89
2022-12-26T07:22:36.415Z,987.87
2022-12-26T07:23:36.260Z,987.85
2022-12-26T07:24:36.275Z,987.89
2022-12-26T07:25:36.271Z,987.96
2022-12-26T07:26:36.260Z,988.00
2022-12-26T07:27:36.245Z,988.01
2022-12-26T07:28:36.221Z,987.99
2022-12-26T07:29:36.505Z,988.09
2022-12-26T07:30:36.208Z,988.11
2022-12-26T07:31:36.246Z,988.11
2022-12-26T07:32:36.177Z,988.11
2022-12-26T07:33:36.188Z,988.11
2022-12-26T07:34:36.138Z,988.04
2022-12-26T07:35:36.139Z,988.05
2022-12-26T07:36:36.149Z,988.03
2022-12-26T07:37:36.185Z,988.01
2022-12-26T07:38:36.122Z,988.07
2022-12-26T07:39:36.156Z,988.07
2022-12-26T07:40:36.118Z,988.09
2022-12-26T07:41:36.108Z,988.17
2022-12-26T07:42:36.094Z,988.05
2022-12-26T07:43:36.094Z,988.06
2022-12-26T07:44:36.080Z,988.06
2022-12-26T07:45:39.198Z,988.04
2022-12-26T07:46:36.384Z,988.01
2022-12-26T07:47:36.031Z,987.96
2022-12-26T07:48:36.052Z,988.03
2022-12-26T07:49:36.026Z,988.06
2022-12-26T07:50:36.017Z,988.10
2022-12-26T07:51:35.995Z,988.18
2022-12-26T07:52:36.197Z,988.21
2022-12-26T07:53:36.045Z,988.23
2022-12-26T07:54:35.994Z,988.26
2022-12-26T07:55:35.987Z,988.28
2022-12-26T07:56:35.931Z,988.32
2022-12-26T07:57:48.454Z,988.34
2022-12-26T07:58:35.941Z,988.31
2022-12-26T07:59:35.933Z,988.33
2022-12-26T08:00:35.899Z,988.26
2022-12-26T08:01:36.056Z,988.16
2022-12-26T08:02:36.139Z,988.13
2022-12-26T08:03:35.969Z,988.09
2022-12-26T08:04:35.896Z,988.05
2022-12-26T08:05:35.920Z,988.05
2022-12-26T08:06:35.893Z,988.08
2022-12-26T08:07:35.849Z,988.09
2022-12-26T08:08:35.836Z,988.12
2022-12-26T08:09:35.877Z,988.09
2022-12-26T08:10:35.789Z,988.08
2022-12-26T08:11:36.005Z,988.10
2022-12-26T08:12:35.843Z,988.13
2022-12-26T08:13:35.797Z,988.16
2022-12-26T08:14:35.782Z,988.19
2022-12-26T08:15:35.817Z,988.20
2022-12-26T08:16:35.800Z,988.19
2022-12-26T08:17:35.790Z,988.25
2022-12-26T08:18:35.768Z,988.22
2022-12-26T08:19:35.731Z,988.26
2022-12-26T08:20:35.748Z,988.31
2022-12-26T08:21:35.706Z,988.36
2022-12-26T08:22:35.731Z,988.37
2022-12-26T08:23:35.738Z,988.38
2022-12-26T08:24:35.660Z,988.40
2022-12-26T08:25:35.681Z,988.36
2022-12-26T08:26:35.719Z,988.37
2022-12-26T08:27:35.668Z,988.35
2022-12-26T08:28:35.665Z,988.34
2022-12-26T08:29:35.672Z,988.30
2022-12-26T08:30:35.648Z,988.25
2022-12-26T08:31:35.854Z,988.25
2022-12-26T08:32:37.247Z,988.23
2022-12-26T08:33:35.652Z,988.18
2022-12-26T08:34:35.621Z,988.15
2022-12-26T08:35:35.642Z,988.14
2022-12-26T08:36:35.618Z,988.08
2022-12-26T08:37:35.557Z,988.09
2022-12-26T08:38:35.590Z,988.06
2022-12-26T08:39:35.589Z,988.02
2022-12-26T08:40:44.352Z,988.04
2022-12-26T08:41:35.537Z,988.03
2022-12-26T08:42:44.791Z,988.02
2022-12-26T08:44:35.507Z,988.06
2022-12-26T08:45:35.541Z,988.09
2022-12-26T08:46:35.485Z,988.12
2022-12-26T08:47:35.513Z,988.18
2022-12-26T08:48:35.507Z,988.17
2022-12-26T08:49:35.466Z,988.19
2022-12-26T08:50:39.425Z,988.21
2022-12-26T08:51:35.450Z,988.20
2022-12-26T08:52:35.425Z,988.12
2022-12-26T08:53:35.469Z,988.11
2022-12-26T08:54:35.462Z,988.13
2022-12-26T08:55:35.382Z,988.15
2022-12-26T08:56:35.431Z,988.17
2022-12-26T08:57:35.423Z,988.13
2022-12-26T08:58:35.604Z,988.14
2022-12-26T08:59:35.363Z,988.15
2022-12-26T09:00:35.387Z,988.15
2022-12-26T09:01:35.446Z,988.19
2022-12-26T09:02:35.522Z,988.19
2022-12-26T09:03:35.365Z,988.20
2022-12-26T09:04:35.636Z,988.23
2022-12-26T09:05:35.300Z,988.24
2022-12-26T09:06:35.338Z,988.25
2022-12-26T09:07:35.270Z,988.20
2022-12-26T09:08:35.292Z,988.23
2022-12-26T09:09:35.259Z,988.23
2022-12-26T09:10:35.473Z,988.19
2022-12-26T09:11:35.251Z,988.24
2022-12-26T09:12:35.261Z,988.23
2022-12-26T09:13:35.278Z,988.23
2022-12-26T09:14:35.252Z,988.25
2022-12-26T09:15:35.200Z,988.25
2022-12-26T09:16:39.151Z,988.29
2022-12-26T09:17:35.244Z,988.31
2022-12-26T09:18:35.199Z,988.32
2022-12-26T09:19:35.197Z,988.38
2022-12-26T09:20:35.163Z,988.38
2022-12-26T09:21:35.157Z,988.41
2022-12-26T09:22:35.590Z,988.40
2022-12-26T09:23:35.162Z,988.51
2022-12-26T09:24:35.166Z,988.53
2022-12-26T09:25:35.155Z,988.54
2022-12-26T09:26:35.157Z,988.52
2022-12-26T09:27:35.163Z,988.49
2022-12-26T09:28:35.179Z,988.49
2022-12-26T09:29:35.331Z,988.51
2022-12-26T09:30:35.173Z,988.58
2022-12-26T09:31:35.089Z,988.56
2022-12-26T09:32:35.085Z,988.54
2022-12-26T09:33:35.101Z,988.60
2022-12-26T09:34:35.066Z,988.56
2022-12-26T09:35:35.092Z,988.56
2022-12-26T09:36:35.049Z,988.49
2022-12-26T09:37:35.023Z,988.44
2022-12-26T09:38:35.024Z,988.45
2022-12-26T09:39:35.061Z,988.41
2022-12-26T09:40:35.024Z,988.45
2022-12-26T09:41:34.992Z,988.49
2022-12-26T09:42:34.985Z,988.48
2022-12-26T09:43:35.216Z,988.44
2022-12-26T09:44:35.166Z,988.43
2022-12-26T09:45:34.961Z,988.37
2022-12-26T09:46:35.113Z,988.36
2022-12-26T09:47:34.937Z,988.41
2022-12-26T09:48:34.965Z,988.41
2022-12-26T09:49:34.935Z,988.43
2022-12-26T09:50:39.616Z,988.31
2022-12-26T09:51:34.911Z,988.38
2022-12-26T09:52:34.882Z,988.31
2022-12-26T09:53:35.089Z,988.37
2022-12-26T09:54:34.891Z,988.39
2022-12-26T09:55:34.873Z,988.37
2022-12-26T09:57:06.259Z,988.34
2022-12-26T09:57:34.832Z,988.37
2022-12-26T09:58:34.839Z,988.38
2022-12-26T09:59:35.045Z,988.41
2022-12-26T10:00:34.851Z,988.41
2022-12-26T10:01:34.969Z,988.40
2022-12-26T10:02:35.013Z,988.36
2022-12-26T10:03:34.833Z,988.42
2022-12-26T10:04:34.875Z,988.42
2022-12-26T10:05:34.781Z,988.49
2022-12-26T10:06:34.841Z,988.54
2022-12-26T10:07:35.029Z,988.51
2022-12-26T10:08:34.750Z,988.53
2022-12-26T10:09:34.977Z,988.51
2022-12-26T10:10:34.765Z,988.48
2022-12-26T10:11:34.755Z,988.41
2022-12-26T10:12:34.738Z,988.41
2022-12-26T10:13:34.698Z,988.39
2022-12-26T10:14:34.702Z,988.44
2022-12-26T10:15:34.759Z,988.46
2022-12-26T10:16:34.697Z,988.51
2022-12-26T10:17:34.678Z,988.52
2022-12-26T10:18:34.695Z,988.49
2022-12-26T10:19:34.681Z,988.51
2022-12-26T10:20:34.872Z,988.50
2022-12-26T10:21:34.671Z,988.44
2022-12-26T10:22:34.654Z,988.47
2022-12-26T10:23:34.653Z,988.59
2022-12-26T10:24:34.605Z,988.66
2022-12-26T10:25:34.584Z,988.61
2022-12-26T10:26:34.626Z,988.66
2022-12-26T10:27:34.624Z,988.66
2022-12-26T10:28:34.571Z,988.63
2022-12-26T10:29:34.561Z,988.61
2022-12-26T10:30:34.555Z,988.49
2022-12-26T10:31:34.594Z,988.52
2022-12-26T10:32:34.578Z,988.48
2022-12-26T10:33:34.547Z,988.52
2022-12-26T10:34:34.783Z,988.44
2022-12-26T10:35:34.754Z,988.41
2022-12-26T10:36:34.580Z,988.40
2022-12-26T10:37:34.502Z,988.49
2022-12-26T10:38:34.496Z,988.49
2022-12-26T10:39:34.713Z,988.38
2022-12-26T10:40:34.685Z,988.46
2022-12-26T10:41:34.686Z,988.44
2022-12-26T10:42:34.683Z,988.41
2022-12-26T10:43:34.483Z,988.41
2022-12-26T10:44:34.518Z,988.44
2022-12-26T10:45:34.444Z,988.43
2022-12-26T10:46:34.607Z,988.42
2022-12-26T10:47:34.406Z,988.52
2022-12-26T10:48:34.412Z,988.55
2022-12-26T10:49:34.648Z,988.60
2022-12-26T10:50:34.480Z,988.64
2022-12-26T10:51:34.414Z,988.63
2022-12-26T10:52:34.383Z,988.62
2022-12-26T10:53:34.374Z,988.72
2022-12-26T10:54:34.591Z,988.73
2022-12-26T10:55:35.069Z,988.80
2022-12-26T10:56:34.415Z,988.89
2022-12-26T10:57:34.349Z,989.01
2022-12-26T10:58:34.345Z,989.08
2022-12-26T10:59:34.401Z,989.24
2022-12-26T11:00:34.572Z,989.21
2022-12-26T11:01:34.635Z,989.31
2022-12-26T11:02:34.478Z,989.21
2022-12-26T11:03:34.372Z,989.17
2022-12-26T11:06:34.300Z,989.15
2022-12-26T11:07:34.285Z,989.18
2022-12-26T11:08:40.715Z,989.24
2022-12-26T11:09:34.251Z,989.26
2022-12-26T11:10:34.295Z,989.18
2022-12-26T11:11:34.243Z,989.24
2022-12-26T11:12:34.229Z,989.26
2022-12-26T11:13:34.202Z,989.30
2022-12-26T11:14:34.606Z,989.25
2022-12-26T11:15:34.196Z,989.21
2022-12-26T11:16:34.350Z,989.16
2022-12-26T11:17:34.237Z,989.22
2022-12-26T11:18:34.178Z,989.28
2022-12-26T11:19:34.132Z,989.39
2022-12-26T11:20:34.118Z,989.32
2022-12-26T11:21:34.130Z,989.33
2022-12-26T11:22:34.121Z,989.29
2022-12-26T11:23:34.158Z,989.31
2022-12-26T11:24:34.093Z,989.28
2022-12-26T11:25:34.076Z,989.38
2022-12-26T11:26:34.065Z,989.45
2022-12-26T11:27:34.077Z,989.50
2022-12-26T11:28:34.259Z,989.45
2022-12-26T11:29:34.063Z,989.40
2022-12-26T11:30:34.052Z,989.33
2022-12-26T11:31:34.061Z,989.31
2022-12-26T11:32:34.087Z,989.27
2022-12-26T11:33:34.031Z,989.31
2022-12-26T11:34:34.025Z,989.26
2022-12-26T11:35:34.004Z,989.25
2022-12-26T11:36:34.014Z,989.25
2022-12-26T11:37:34.000Z,989.29
2022-12-26T11:38:37.513Z,989.27
2022-12-26T11:39:33.942Z,989.34
2022-12-26T11:40:33.922Z,989.28
2022-12-26T11:41:33.927Z,989.27
2022-12-26T11:42:33.906Z,989.35
2022-12-26T11:43:34.120Z,989.39
2022-12-26T11:44:33.890Z,989.44
2022-12-26T11:45:38.745Z,989.44
2022-12-26T11:46:33.932Z,989.37
2022-12-26T11:47:33.881Z,989.33
2022-12-26T11:48:33.884Z,989.28
2022-12-26T11:49:33.845Z,989.31
2022-12-26T11:50:33.873Z,989.21
2022-12-26T11:51:33.899Z,989.29
2022-12-26T11:52:33.827Z,989.25
2022-12-26T11:53:33.861Z,989.23
2022-12-26T11:54:33.812Z,989.17
2022-12-26T11:55:33.836Z,989.12
2022-12-26T11:56:33.802Z,989.12
2022-12-26T11:57:33.803Z,989.09
2022-12-26T11:58:33.778Z,989.06
2022-12-26T11:59:33.801Z,989.13
2022-12-26T12:00:33.755Z,989.12
2022-12-26T12:01:33.790Z,989.12
2022-12-26T12:02:33.761Z,989.10
2022-12-26T12:03:33.787Z,989.11
2022-12-26T12:04:33.921Z,989.18
2022-12-26T12:05:33.726Z,989.18
2022-12-26T12:06:33.693Z,989.19
2022-12-26T12:07:33.695Z,989.25
2022-12-26T12:08:33.671Z,989.25
2022-12-26T12:09:33.651Z,989.22
2022-12-26T12:10:33.702Z,989.21
2022-12-26T12:11:33.658Z,989.27
2022-12-26T12:12:33.646Z,989.28
2022-12-26T12:13:33.624Z,989.24
2022-12-26T12:14:33.823Z,989.29
2022-12-26T12:15:33.639Z,989.29
2022-12-26T12:16:33.752Z,989.31
2022-12-26T12:17:33.609Z,989.28
2022-12-26T12:18:33.597Z,989.25
2022-12-26T12:19:33.616Z,989.23
2022-12-26T12:20:33.560Z,989.23
2022-12-26T12:21:33.773Z,989.22
2022-12-26T12:22:33.599Z,989.22
2022-12-26T12:23:33.532Z,989.26
2022-12-26T12:24:33.576Z,989.26
2022-12-26T12:25:33.726Z,989.24
2022-12-26T12:26:33.507Z,989.21
2022-12-26T12:27:33.568Z,989.20
2022-12-26T12:28:33.493Z,989.20
2022-12-26T12:29:33.796Z,989.26
2022-12-26T12:30:33.466Z,989.21
2022-12-26T12:31:33.573Z,989.20